sensor_id;sensor_type;location;lat;lon;timestamp;P1;durP1;ratioP1;P2;durP2;ratioP2
23543;SDS011;11950;51.230;4.012;2024-01-27T00:00:46;11.10;;;5.70;;
23543;SDS011;11950;51.230;4.012;2024-01-27T00:03:12;11.27;;;6.50;;
23543;SDS011;11950;51.230;4.012;2024-01-27T00:05:38;11.40;;;5.78;;
23543;SDS011;11950;51.230;4.012;2024-01-27T00:08:04;12.88;;;6.15;;
23543;SDS011;11950;51.230;4.012;2024-01-27T00:10:31;13.93;;;6.00;;
23543;SDS011;11950;51.230;4.012;2024-01-27T00:12:57;14.32;;;5.75;;
23543;SDS011;11950;51.230;4.012;2024-01-27T00:15:23;10.48;;;6.05;;
23543;SDS011;11950;51.230;4.012;2024-01-27T00:17:50;14.90;;;6.00;;
23543;SDS011;11950;51.230;4.012;2024-01-27T00:20:16;9.88;;;6.20;;
23543;SDS011;11950;51.230;4.012;2024-01-27T00:22:42;17.75;;;7.47;;
23543;SDS011;11950;51.230;4.012;2024-01-27T00:25:09;13.88;;;6.03;;
23543;SDS011;11950;51.230;4.012;2024-01-27T00:27:35;13.90;;;6.95;;
23543;SDS011;11950;51.230;4.012;2024-01-27T00:30:02;15.13;;;6.47;;
23543;SDS011;11950;51.230;4.012;2024-01-27T00:32:28;14.48;;;6.70;;
23543;SDS011;11950;51.230;4.012;2024-01-27T00:34:54;15.95;;;7.05;;
23543;SDS011;11950;51.230;4.012;2024-01-27T00:37:21;13.75;;;6.22;;
23543;SDS011;11950;51.230;4.012;2024-01-27T00:39:47;14.05;;;7.10;;
23543;SDS011;11950;51.230;4.012;2024-01-27T00:42:13;14.02;;;6.70;;
23543;SDS011;11950;51.230;4.012;2024-01-27T00:44:39;14.40;;;6.05;;
23543;SDS011;11950;51.230;4.012;2024-01-27T00:47:06;14.15;;;6.53;;
23543;SDS011;11950;51.230;4.012;2024-01-27T00:49:32;12.10;;;6.15;;
23543;SDS011;11950;51.230;4.012;2024-01-27T00:51:58;13.82;;;7.25;;
23543;SDS011;11950;51.230;4.012;2024-01-27T00:54:24;12.73;;;6.85;;
23543;SDS011;11950;51.230;4.012;2024-01-27T00:56:51;13.50;;;6.82;;
23543;SDS011;11950;51.230;4.012;2024-01-27T00:59:18;11.30;;;7.10;;
23543;SDS011;11950;51.230;4.012;2024-01-27T01:01:44;14.07;;;6.90;;
23543;SDS011;11950;51.230;4.012;2024-01-27T01:04:10;13.77;;;5.75;;
23543;SDS011;11950;51.230;4.012;2024-01-27T01:06:38;18.77;;;7.00;;
23543;SDS011;11950;51.230;4.012;2024-01-27T01:09:05;12.63;;;6.70;;
23543;SDS011;11950;51.230;4.012;2024-01-27T01:11:32;13.55;;;6.70;;
23543;SDS011;11950;51.230;4.012;2024-01-27T01:13:58;12.57;;;6.40;;
23543;SDS011;11950;51.230;4.012;2024-01-27T01:16:24;14.20;;;7.28;;
23543;SDS011;11950;51.230;4.012;2024-01-27T01:18:50;12.38;;;6.22;;
23543;SDS011;11950;51.230;4.012;2024-01-27T01:21:17;13.48;;;6.35;;
23543;SDS011;11950;51.230;4.012;2024-01-27T01:23:43;11.35;;;5.95;;
23543;SDS011;11950;51.230;4.012;2024-01-27T01:26:09;13.18;;;6.63;;
23543;SDS011;11950;51.230;4.012;2024-01-27T01:28:36;14.98;;;6.40;;
23543;SDS011;11950;51.230;4.012;2024-01-27T01:31:02;13.80;;;6.70;;
23543;SDS011;11950;51.230;4.012;2024-01-27T01:33:31;15.15;;;6.70;;
23543;SDS011;11950;51.230;4.012;2024-01-27T01:35:58;17.25;;;6.55;;
23543;SDS011;11950;51.230;4.012;2024-01-27T01:38:24;14.55;;;6.32;;
23543;SDS011;11950;51.230;4.012;2024-01-27T01:40:50;11.98;;;6.00;;
23543;SDS011;11950;51.230;4.012;2024-01-27T01:43:16;13.05;;;6.70;;
23543;SDS011;11950;51.230;4.012;2024-01-27T01:45:43;11.43;;;5.68;;
23543;SDS011;11950;51.230;4.012;2024-01-27T01:48:09;18.40;;;6.85;;
23543;SDS011;11950;51.230;4.012;2024-01-27T01:50:35;14.75;;;6.60;;
23543;SDS011;11950;51.230;4.012;2024-01-27T01:53:02;14.27;;;6.38;;
23543;SDS011;11950;51.230;4.012;2024-01-27T01:55:29;17.98;;;6.80;;
23543;SDS011;11950;51.230;4.012;2024-01-27T01:57:55;12.60;;;5.47;;
23543;SDS011;11950;51.230;4.012;2024-01-27T02:00:22;12.20;;;6.03;;
23543;SDS011;11950;51.230;4.012;2024-01-27T02:02:48;12.95;;;6.72;;
23543;SDS011;11950;51.230;4.012;2024-01-27T02:05:14;12.23;;;6.55;;
23543;SDS011;11950;51.230;4.012;2024-01-27T02:07:41;10.30;;;5.93;;
23543;SDS011;11950;51.230;4.012;2024-01-27T02:10:12;13.73;;;6.50;;
23543;SDS011;11950;51.230;4.012;2024-01-27T02:12:41;16.23;;;5.53;;
23543;SDS011;11950;51.230;4.012;2024-01-27T02:15:11;14.25;;;6.15;;
23543;SDS011;11950;51.230;4.012;2024-01-27T02:17:39;11.10;;;5.72;;
23543;SDS011;11950;51.230;4.012;2024-01-27T02:20:06;13.77;;;6.13;;
23543;SDS011;11950;51.230;4.012;2024-01-27T02:22:33;10.43;;;5.93;;
23543;SDS011;11950;51.230;4.012;2024-01-27T02:25:00;13.40;;;6.70;;
23543;SDS011;11950;51.230;4.012;2024-01-27T02:27:30;14.70;;;6.63;;
23543;SDS011;11950;51.230;4.012;2024-01-27T02:29:56;14.52;;;6.45;;
23543;SDS011;11950;51.230;4.012;2024-01-27T02:32:22;14.32;;;7.53;;
23543;SDS011;11950;51.230;4.012;2024-01-27T02:34:49;15.50;;;6.80;;
23543;SDS011;11950;51.230;4.012;2024-01-27T02:37:15;21.50;;;6.82;;
23543;SDS011;11950;51.230;4.012;2024-01-27T02:39:41;13.32;;;6.45;;
23543;SDS011;11950;51.230;4.012;2024-01-27T02:42:08;12.15;;;7.00;;
23543;SDS011;11950;51.230;4.012;2024-01-27T02:44:34;14.63;;;6.82;;
23543;SDS011;11950;51.230;4.012;2024-01-27T02:47:00;17.52;;;6.93;;
23543;SDS011;11950;51.230;4.012;2024-01-27T02:49:26;14.93;;;6.38;;
23543;SDS011;11950;51.230;4.012;2024-01-27T02:51:53;15.02;;;7.35;;
23543;SDS011;11950;51.230;4.012;2024-01-27T02:54:19;9.68;;;6.03;;
23543;SDS011;11950;51.230;4.012;2024-01-27T02:56:45;13.32;;;6.22;;
23543;SDS011;11950;51.230;4.012;2024-01-27T02:59:12;17.27;;;6.53;;
23543;SDS011;11950;51.230;4.012;2024-01-27T03:01:38;13.25;;;6.13;;
23543;SDS011;11950;51.230;4.012;2024-01-27T03:04:04;15.20;;;6.22;;
23543;SDS011;11950;51.230;4.012;2024-01-27T03:06:31;15.90;;;7.05;;
23543;SDS011;11950;51.230;4.012;2024-01-27T03:08:57;15.30;;;6.60;;
23543;SDS011;11950;51.230;4.012;2024-01-27T03:11:23;16.98;;;7.18;;
23543;SDS011;11950;51.230;4.012;2024-01-27T03:13:50;12.98;;;6.50;;
23543;SDS011;11950;51.230;4.012;2024-01-27T03:16:16;12.68;;;5.97;;
23543;SDS011;11950;51.230;4.012;2024-01-27T03:18:44;11.85;;;6.45;;
23543;SDS011;11950;51.230;4.012;2024-01-27T03:21:10;13.23;;;6.18;;
23543;SDS011;11950;51.230;4.012;2024-01-27T03:23:36;11.70;;;5.93;;
23543;SDS011;11950;51.230;4.012;2024-01-27T03:26:03;13.25;;;6.15;;
23543;SDS011;11950;51.230;4.012;2024-01-27T03:28:32;15.65;;;6.25;;
23543;SDS011;11950;51.230;4.012;2024-01-27T03:30:58;16.63;;;7.15;;
23543;SDS011;11950;51.230;4.012;2024-01-27T03:33:25;18.77;;;7.18;;
23543;SDS011;11950;51.230;4.012;2024-01-27T03:35:52;15.85;;;6.60;;
23543;SDS011;11950;51.230;4.012;2024-01-27T03:38:18;14.70;;;6.93;;
23543;SDS011;11950;51.230;4.012;2024-01-27T03:40:44;13.25;;;6.85;;
23543;SDS011;11950;51.230;4.012;2024-01-27T03:43:10;15.02;;;6.22;;
23543;SDS011;11950;51.230;4.012;2024-01-27T03:45:37;13.93;;;6.97;;
23543;SDS011;11950;51.230;4.012;2024-01-27T03:48:03;18.63;;;7.00;;
23543;SDS011;11950;51.230;4.012;2024-01-27T03:50:29;17.70;;;7.15;;
23543;SDS011;11950;51.230;4.012;2024-01-27T03:52:56;15.65;;;7.03;;
23543;SDS011;11950;51.230;4.012;2024-01-27T03:55:22;15.65;;;7.53;;
23543;SDS011;11950;51.230;4.012;2024-01-27T03:57:48;18.50;;;7.38;;
23543;SDS011;11950;51.230;4.012;2024-01-27T04:00:14;14.48;;;6.85;;
23543;SDS011;11950;51.230;4.012;2024-01-27T04:02:41;14.40;;;7.55;;
23543;SDS011;11950;51.230;4.012;2024-01-27T04:05:07;14.02;;;7.30;;
23543;SDS011;11950;51.230;4.012;2024-01-27T04:07:33;13.65;;;7.20;;
23543;SDS011;11950;51.230;4.012;2024-01-27T04:10:01;13.77;;;7.53;;
23543;SDS011;11950;51.230;4.012;2024-01-27T04:12:29;13.68;;;7.00;;
23543;SDS011;11950;51.230;4.012;2024-01-27T04:14:56;13.48;;;7.22;;
23543;SDS011;11950;51.230;4.012;2024-01-27T04:17:23;15.70;;;7.25;;
23543;SDS011;11950;51.230;4.012;2024-01-27T04:19:50;19.10;;;6.90;;
23543;SDS011;11950;51.230;4.012;2024-01-27T04:22:16;19.75;;;7.07;;
23543;SDS011;11950;51.230;4.012;2024-01-27T04:24:42;11.98;;;6.50;;
23543;SDS011;11950;51.230;4.012;2024-01-27T04:27:09;13.82;;;7.32;;
23543;SDS011;11950;51.230;4.012;2024-01-27T04:29:35;17.08;;;7.60;;
23543;SDS011;11950;51.230;4.012;2024-01-27T04:32:02;18.50;;;7.90;;
23543;SDS011;11950;51.230;4.012;2024-01-27T04:34:28;16.23;;;7.45;;
23543;SDS011;11950;51.230;4.012;2024-01-27T04:36:54;12.88;;;7.45;;
23543;SDS011;11950;51.230;4.012;2024-01-27T04:39:20;16.38;;;8.48;;
23543;SDS011;11950;51.230;4.012;2024-01-27T04:41:47;20.48;;;8.45;;
23543;SDS011;11950;51.230;4.012;2024-01-27T04:44:13;14.32;;;7.43;;
23543;SDS011;11950;51.230;4.012;2024-01-27T04:46:39;18.25;;;7.75;;
23543;SDS011;11950;51.230;4.012;2024-01-27T04:49:05;14.05;;;7.00;;
23543;SDS011;11950;51.230;4.012;2024-01-27T04:51:32;17.85;;;7.85;;
23543;SDS011;11950;51.230;4.012;2024-01-27T04:53:58;27.35;;;9.32;;
23543;SDS011;11950;51.230;4.012;2024-01-27T04:56:24;14.65;;;7.43;;
23543;SDS011;11950;51.230;4.012;2024-01-27T04:58:51;13.00;;;7.22;;
23543;SDS011;11950;51.230;4.012;2024-01-27T05:01:17;19.15;;;7.18;;
23543;SDS011;11950;51.230;4.012;2024-01-27T05:03:43;15.93;;;7.47;;
23543;SDS011;11950;51.230;4.012;2024-01-27T05:06:10;14.13;;;6.80;;
23543;SDS011;11950;51.230;4.012;2024-01-27T05:08:36;15.85;;;8.18;;
23543;SDS011;11950;51.230;4.012;2024-01-27T05:11:03;17.52;;;7.30;;
23543;SDS011;11950;51.230;4.012;2024-01-27T05:13:29;14.05;;;7.63;;
23543;SDS011;11950;51.230;4.012;2024-01-27T05:15:55;18.50;;;7.88;;
23543;SDS011;11950;51.230;4.012;2024-01-27T05:18:22;16.45;;;7.53;;
23543;SDS011;11950;51.230;4.012;2024-01-27T05:20:48;20.95;;;7.30;;
23543;SDS011;11950;51.230;4.012;2024-01-27T05:23:14;16.00;;;6.85;;
23543;SDS011;11950;51.230;4.012;2024-01-27T05:25:41;15.75;;;7.20;;
23543;SDS011;11950;51.230;4.012;2024-01-27T05:28:07;14.98;;;7.00;;
23543;SDS011;11950;51.230;4.012;2024-01-27T05:30:33;13.75;;;7.18;;
23543;SDS011;11950;51.230;4.012;2024-01-27T05:32:59;16.55;;;6.80;;
23543;SDS011;11950;51.230;4.012;2024-01-27T05:35:25;15.68;;;7.45;;
23543;SDS011;11950;51.230;4.012;2024-01-27T05:37:52;15.27;;;7.20;;
23543;SDS011;11950;51.230;4.012;2024-01-27T05:40:19;17.08;;;7.38;;
23543;SDS011;11950;51.230;4.012;2024-01-27T05:42:45;10.05;;;6.50;;
23543;SDS011;11950;51.230;4.012;2024-01-27T05:45:12;17.73;;;7.38;;
23543;SDS011;11950;51.230;4.012;2024-01-27T05:47:38;18.13;;;7.38;;
23543;SDS011;11950;51.230;4.012;2024-01-27T05:50:04;12.77;;;6.60;;
23543;SDS011;11950;51.230;4.012;2024-01-27T05:52:34;14.27;;;7.63;;
23543;SDS011;11950;51.230;4.012;2024-01-27T05:55:03;16.13;;;7.63;;
23543;SDS011;11950;51.230;4.012;2024-01-27T05:57:32;13.93;;;7.05;;
23543;SDS011;11950;51.230;4.012;2024-01-27T05:59:58;15.88;;;7.07;;
23543;SDS011;11950;51.230;4.012;2024-01-27T06:02:24;18.88;;;7.57;;
23543;SDS011;11950;51.230;4.012;2024-01-27T06:04:50;15.45;;;7.57;;
23543;SDS011;11950;51.230;4.012;2024-01-27T06:07:17;10.40;;;7.05;;
23543;SDS011;11950;51.230;4.012;2024-01-27T06:09:43;18.35;;;7.35;;
23543;SDS011;11950;51.230;4.012;2024-01-27T06:12:09;19.65;;;7.35;;
23543;SDS011;11950;51.230;4.012;2024-01-27T06:14:35;17.52;;;7.75;;
23543;SDS011;11950;51.230;4.012;2024-01-27T06:17:04;13.10;;;7.05;;
23543;SDS011;11950;51.230;4.012;2024-01-27T06:19:31;17.45;;;7.20;;
23543;SDS011;11950;51.230;4.012;2024-01-27T06:21:57;20.60;;;7.85;;
23543;SDS011;11950;51.230;4.012;2024-01-27T06:24:23;15.23;;;7.93;;
23543;SDS011;11950;51.230;4.012;2024-01-27T06:26:49;16.48;;;8.18;;
23543;SDS011;11950;51.230;4.012;2024-01-27T06:29:16;14.90;;;7.32;;
23543;SDS011;11950;51.230;4.012;2024-01-27T06:31:42;16.33;;;7.55;;
23543;SDS011;11950;51.230;4.012;2024-01-27T06:34:08;25.60;;;7.55;;
23543;SDS011;11950;51.230;4.012;2024-01-27T06:36:34;14.07;;;7.35;;
23543;SDS011;11950;51.230;4.012;2024-01-27T06:39:01;12.95;;;7.10;;
23543;SDS011;11950;51.230;4.012;2024-01-27T06:41:27;16.27;;;7.63;;
23543;SDS011;11950;51.230;4.012;2024-01-27T06:43:53;12.77;;;6.13;;
23543;SDS011;11950;51.230;4.012;2024-01-27T06:46:19;20.70;;;7.65;;
23543;SDS011;11950;51.230;4.012;2024-01-27T06:48:45;15.63;;;7.63;;
23543;SDS011;11950;51.230;4.012;2024-01-27T06:51:12;16.35;;;7.82;;
23543;SDS011;11950;51.230;4.012;2024-01-27T06:53:38;13.27;;;6.45;;
23543;SDS011;11950;51.230;4.012;2024-01-27T06:56:04;13.68;;;7.38;;
23543;SDS011;11950;51.230;4.012;2024-01-27T06:58:31;18.30;;;7.05;;
23543;SDS011;11950;51.230;4.012;2024-01-27T07:00:58;12.23;;;6.60;;
23543;SDS011;11950;51.230;4.012;2024-01-27T07:03:24;12.02;;;6.32;;
23543;SDS011;11950;51.230;4.012;2024-01-27T07:05:50;16.33;;;6.80;;
23543;SDS011;11950;51.230;4.012;2024-01-27T07:08:16;12.68;;;6.85;;
23543;SDS011;11950;51.230;4.012;2024-01-27T07:10:42;14.13;;;6.28;;
23543;SDS011;11950;51.230;4.012;2024-01-27T07:13:09;10.13;;;5.32;;
23543;SDS011;11950;51.230;4.012;2024-01-27T07:15:35;14.50;;;7.30;;
23543;SDS011;11950;51.230;4.012;2024-01-27T07:18:03;14.82;;;6.53;;
23543;SDS011;11950;51.230;4.012;2024-01-27T07:20:30;15.43;;;6.63;;
23543;SDS011;11950;51.230;4.012;2024-01-27T07:22:56;13.57;;;6.80;;
23543;SDS011;11950;51.230;4.012;2024-01-27T07:25:22;18.48;;;7.63;;
23543;SDS011;11950;51.230;4.012;2024-01-27T07:27:48;19.58;;;7.20;;
23543;SDS011;11950;51.230;4.012;2024-01-27T07:30:15;14.13;;;6.57;;
23543;SDS011;11950;51.230;4.012;2024-01-27T07:32:41;19.67;;;6.82;;
23543;SDS011;11950;51.230;4.012;2024-01-27T07:35:09;15.25;;;7.45;;
23543;SDS011;11950;51.230;4.012;2024-01-27T07:37:35;11.98;;;7.10;;
23543;SDS011;11950;51.230;4.012;2024-01-27T07:40:02;16.30;;;7.35;;
23543;SDS011;11950;51.230;4.012;2024-01-27T07:42:29;17.63;;;6.97;;
23543;SDS011;11950;51.230;4.012;2024-01-27T07:44:55;18.50;;;8.07;;
23543;SDS011;11950;51.230;4.012;2024-01-27T07:47:21;17.23;;;6.78;;
23543;SDS011;11950;51.230;4.012;2024-01-27T07:49:48;14.70;;;7.35;;
23543;SDS011;11950;51.230;4.012;2024-01-27T07:52:14;18.80;;;6.78;;
23543;SDS011;11950;51.230;4.012;2024-01-27T07:54:41;17.45;;;6.60;;
23543;SDS011;11950;51.230;4.012;2024-01-27T07:57:08;19.33;;;7.88;;
23543;SDS011;11950;51.230;4.012;2024-01-27T07:59:34;17.50;;;7.20;;
23543;SDS011;11950;51.230;4.012;2024-01-27T08:02:00;12.30;;;6.65;;
23543;SDS011;11950;51.230;4.012;2024-01-27T08:04:26;16.33;;;7.13;;
23543;SDS011;11950;51.230;4.012;2024-01-27T08:06:53;14.65;;;6.70;;
23543;SDS011;11950;51.230;4.012;2024-01-27T08:09:19;12.32;;;7.13;;
23543;SDS011;11950;51.230;4.012;2024-01-27T08:11:46;16.52;;;6.97;;
23543;SDS011;11950;51.230;4.012;2024-01-27T08:14:16;9.05;;;4.72;;
23543;SDS011;11950;51.230;4.012;2024-01-27T08:16:43;15.15;;;7.65;;
23543;SDS011;11950;51.230;4.012;2024-01-27T08:19:09;15.02;;;7.30;;
23543;SDS011;11950;51.230;4.012;2024-01-27T08:21:35;14.93;;;7.55;;
23543;SDS011;11950;51.230;4.012;2024-01-27T08:24:02;12.63;;;6.47;;
23543;SDS011;11950;51.230;4.012;2024-01-27T08:26:28;14.50;;;6.95;;
23543;SDS011;11950;51.230;4.012;2024-01-27T08:28:54;17.33;;;7.55;;
23543;SDS011;11950;51.230;4.012;2024-01-27T08:31:21;13.45;;;6.75;;
23543;SDS011;11950;51.230;4.012;2024-01-27T08:33:48;16.02;;;7.13;;
23543;SDS011;11950;51.230;4.012;2024-01-27T08:36:14;13.82;;;6.93;;
23543;SDS011;11950;51.230;4.012;2024-01-27T08:38:41;18.23;;;7.50;;
23543;SDS011;11950;51.230;4.012;2024-01-27T08:41:07;15.68;;;7.57;;
23543;SDS011;11950;51.230;4.012;2024-01-27T08:43:34;16.75;;;7.10;;
23543;SDS011;11950;51.230;4.012;2024-01-27T08:46:00;18.42;;;7.22;;
23543;SDS011;11950;51.230;4.012;2024-01-27T08:48:26;11.75;;;6.32;;
23543;SDS011;11950;51.230;4.012;2024-01-27T08:50:53;14.40;;;7.22;;
23543;SDS011;11950;51.230;4.012;2024-01-27T08:53:19;14.95;;;7.47;;
23543;SDS011;11950;51.230;4.012;2024-01-27T08:55:45;15.18;;;7.45;;
23543;SDS011;11950;51.230;4.012;2024-01-27T08:58:11;20.75;;;7.55;;
23543;SDS011;11950;51.230;4.012;2024-01-27T09:00:38;13.52;;;6.35;;
23543;SDS011;11950;51.230;4.012;2024-01-27T09:03:04;24.33;;;8.40;;
23543;SDS011;11950;51.230;4.012;2024-01-27T09:05:31;12.98;;;7.05;;
23543;SDS011;11950;51.230;4.012;2024-01-27T09:07:57;19.80;;;8.82;;
23543;SDS011;11950;51.230;4.012;2024-01-27T09:10:23;15.90;;;8.18;;
23543;SDS011;11950;51.230;4.012;2024-01-27T09:12:50;15.23;;;7.60;;
23543;SDS011;11950;51.230;4.012;2024-01-27T09:15:17;16.45;;;7.72;;
23543;SDS011;11950;51.230;4.012;2024-01-27T09:17:43;17.10;;;7.20;;
23543;SDS011;11950;51.230;4.012;2024-01-27T09:20:09;21.05;;;8.38;;
23543;SDS011;11950;51.230;4.012;2024-01-27T09:22:36;13.88;;;6.88;;
23543;SDS011;11950;51.230;4.012;2024-01-27T09:25:02;17.92;;;7.70;;
23543;SDS011;11950;51.230;4.012;2024-01-27T09:27:29;15.55;;;7.05;;
23543;SDS011;11950;51.230;4.012;2024-01-27T09:29:55;16.63;;;6.97;;
23543;SDS011;11950;51.230;4.012;2024-01-27T09:32:22;17.73;;;7.60;;
23543;SDS011;11950;51.230;4.012;2024-01-27T09:34:48;15.63;;;6.70;;
23543;SDS011;11950;51.230;4.012;2024-01-27T09:37:14;13.50;;;7.32;;
23543;SDS011;11950;51.230;4.012;2024-01-27T09:39:40;10.57;;;6.68;;
23543;SDS011;11950;51.230;4.012;2024-01-27T09:42:08;17.60;;;7.03;;
23543;SDS011;11950;51.230;4.012;2024-01-27T09:44:43;16.95;;;7.70;;
23543;SDS011;11950;51.230;4.012;2024-01-27T09:47:12;16.23;;;7.80;;
23543;SDS011;11950;51.230;4.012;2024-01-27T09:49:39;18.65;;;7.63;;
23543;SDS011;11950;51.230;4.012;2024-01-27T09:52:06;17.58;;;7.43;;
23543;SDS011;11950;51.230;4.012;2024-01-27T09:54:34;17.65;;;7.55;;
23543;SDS011;11950;51.230;4.012;2024-01-27T09:57:01;14.73;;;8.82;;
23543;SDS011;11950;51.230;4.012;2024-01-27T09:59:28;17.83;;;7.40;;
23543;SDS011;11950;51.230;4.012;2024-01-27T10:01:56;17.00;;;7.88;;
23543;SDS011;11950;51.230;4.012;2024-01-27T10:04:24;16.23;;;7.85;;
23543;SDS011;11950;51.230;4.012;2024-01-27T10:06:50;19.85;;;7.85;;
23543;SDS011;11950;51.230;4.012;2024-01-27T10:09:18;20.20;;;7.65;;
23543;SDS011;11950;51.230;4.012;2024-01-27T10:11:48;22.05;;;8.60;;
23543;SDS011;11950;51.230;4.012;2024-01-27T10:14:14;15.23;;;7.68;;
23543;SDS011;11950;51.230;4.012;2024-01-27T10:16:41;18.92;;;7.10;;
23543;SDS011;11950;51.230;4.012;2024-01-27T10:19:12;15.80;;;7.10;;
23543;SDS011;11950;51.230;4.012;2024-01-27T10:21:44;17.42;;;7.20;;
23543;SDS011;11950;51.230;4.012;2024-01-27T10:24:11;14.35;;;7.07;;
23543;SDS011;11950;51.230;4.012;2024-01-27T10:26:38;17.42;;;7.10;;
23543;SDS011;11950;51.230;4.012;2024-01-27T10:29:04;13.93;;;6.43;;
23543;SDS011;11950;51.230;4.012;2024-01-27T10:31:31;22.92;;;7.07;;
23543;SDS011;11950;51.230;4.012;2024-01-27T10:34:03;14.57;;;6.70;;
23543;SDS011;11950;51.230;4.012;2024-01-27T10:36:40;14.32;;;6.88;;
23543;SDS011;11950;51.230;4.012;2024-01-27T10:39:22;15.43;;;6.72;;
23543;SDS011;11950;51.230;4.012;2024-01-27T10:41:49;18.02;;;6.68;;
23543;SDS011;11950;51.230;4.012;2024-01-27T10:44:17;14.98;;;6.35;;
23543;SDS011;11950;51.230;4.012;2024-01-27T10:46:45;16.27;;;6.40;;
23543;SDS011;11950;51.230;4.012;2024-01-27T10:49:13;14.68;;;6.75;;
23543;SDS011;11950;51.230;4.012;2024-01-27T10:51:42;14.02;;;5.78;;
23543;SDS011;11950;51.230;4.012;2024-01-27T10:54:23;14.70;;;7.50;;
23543;SDS011;11950;51.230;4.012;2024-01-27T10:56:56;20.80;;;6.65;;
23543;SDS011;11950;51.230;4.012;2024-01-27T10:59:25;20.80;;;7.40;;
23543;SDS011;11950;51.230;4.012;2024-01-27T11:01:54;17.80;;;6.70;;
23543;SDS011;11950;51.230;4.012;2024-01-27T11:04:21;19.85;;;7.35;;
23543;SDS011;11950;51.230;4.012;2024-01-27T11:06:48;18.17;;;6.75;;
23543;SDS011;11950;51.230;4.012;2024-01-27T11:09:15;14.50;;;7.20;;
23543;SDS011;11950;51.230;4.012;2024-01-27T11:11:44;17.92;;;7.43;;
23543;SDS011;11950;51.230;4.012;2024-01-27T11:14:11;16.15;;;7.38;;
23543;SDS011;11950;51.230;4.012;2024-01-27T11:16:38;16.85;;;6.85;;
23543;SDS011;11950;51.230;4.012;2024-01-27T11:19:10;17.48;;;6.25;;
23543;SDS011;11950;51.230;4.012;2024-01-27T11:21:37;16.30;;;6.32;;
23543;SDS011;11950;51.230;4.012;2024-01-27T11:24:16;14.77;;;5.68;;
23543;SDS011;11950;51.230;4.012;2024-01-27T11:26:43;16.20;;;6.28;;
23543;SDS011;11950;51.230;4.012;2024-01-27T11:29:10;14.95;;;6.40;;
23543;SDS011;11950;51.230;4.012;2024-01-27T11:31:45;18.92;;;6.32;;
23543;SDS011;11950;51.230;4.012;2024-01-27T11:34:11;13.15;;;5.93;;
23543;SDS011;11950;51.230;4.012;2024-01-27T11:36:38;11.15;;;5.43;;
23543;SDS011;11950;51.230;4.012;2024-01-27T11:39:04;18.40;;;5.65;;
23543;SDS011;11950;51.230;4.012;2024-01-27T11:41:31;20.73;;;5.28;;
23543;SDS011;11950;51.230;4.012;2024-01-27T11:43:57;15.05;;;4.93;;
23543;SDS011;11950;51.230;4.012;2024-01-27T11:46:27;18.92;;;4.80;;
23543;SDS011;11950;51.230;4.012;2024-01-27T11:48:54;16.15;;;4.60;;
23543;SDS011;11950;51.230;4.012;2024-01-27T11:51:21;9.13;;;4.30;;
23543;SDS011;11950;51.230;4.012;2024-01-27T11:53:48;14.27;;;3.97;;
23543;SDS011;11950;51.230;4.012;2024-01-27T11:56:15;12.23;;;4.45;;
23543;SDS011;11950;51.230;4.012;2024-01-27T11:58:47;10.77;;;3.58;;
23543;SDS011;11950;51.230;4.012;2024-01-27T12:01:14;11.55;;;3.63;;
23543;SDS011;11950;51.230;4.012;2024-01-27T12:03:41;16.88;;;3.80;;
23543;SDS011;11950;51.230;4.012;2024-01-27T12:06:08;16.35;;;3.50;;
23543;SDS011;11950;51.230;4.012;2024-01-27T12:08:35;17.85;;;3.65;;
23543;SDS011;11950;51.230;4.012;2024-01-27T12:11:01;17.33;;;4.00;;
23543;SDS011;11950;51.230;4.012;2024-01-27T12:13:28;11.93;;;3.40;;
23543;SDS011;11950;51.230;4.012;2024-01-27T12:15:54;16.27;;;4.15;;
23543;SDS011;11950;51.230;4.012;2024-01-27T12:18:21;9.80;;;3.47;;
23543;SDS011;11950;51.230;4.012;2024-01-27T12:20:47;14.35;;;3.72;;
23543;SDS011;11950;51.230;4.012;2024-01-27T12:23:14;10.82;;;3.88;;
23543;SDS011;11950;51.230;4.012;2024-01-27T12:25:40;14.65;;;4.35;;
23543;SDS011;11950;51.230;4.012;2024-01-27T12:28:08;18.20;;;3.80;;
23543;SDS011;11950;51.230;4.012;2024-01-27T12:30:34;17.13;;;4.90;;
23543;SDS011;11950;51.230;4.012;2024-01-27T12:33:01;10.77;;;2.72;;
23543;SDS011;11950;51.230;4.012;2024-01-27T12:35:37;15.75;;;3.65;;
23543;SDS011;11950;51.230;4.012;2024-01-27T12:38:07;13.55;;;3.42;;
23543;SDS011;11950;51.230;4.012;2024-01-27T12:40:33;16.10;;;3.00;;
23543;SDS011;11950;51.230;4.012;2024-01-27T12:42:59;15.80;;;3.00;;
23543;SDS011;11950;51.230;4.012;2024-01-27T12:45:26;14.18;;;2.63;;
23543;SDS011;11950;51.230;4.012;2024-01-27T12:47:52;11.23;;;2.63;;
23543;SDS011;11950;51.230;4.012;2024-01-27T12:50:18;9.80;;;2.50;;
23543;SDS011;11950;51.230;4.012;2024-01-27T12:52:44;16.10;;;2.90;;
23543;SDS011;11950;51.230;4.012;2024-01-27T12:55:10;17.80;;;2.63;;
23543;SDS011;11950;51.230;4.012;2024-01-27T12:57:37;10.18;;;2.15;;
23543;SDS011;11950;51.230;4.012;2024-01-27T13:00:06;12.73;;;2.20;;
23543;SDS011;11950;51.230;4.012;2024-01-27T13:02:39;14.17;;;2.67;;
23543;SDS011;11950;51.230;4.012;2024-01-27T13:05:05;17.92;;;2.47;;
23543;SDS011;11950;51.230;4.012;2024-01-27T13:07:32;9.68;;;2.53;;
23543;SDS011;11950;51.230;4.012;2024-01-27T13:09:58;13.50;;;2.30;;
23543;SDS011;11950;51.230;4.012;2024-01-27T13:12:25;12.25;;;2.28;;
23543;SDS011;11950;51.230;4.012;2024-01-27T13:14:51;10.90;;;2.75;;
23543;SDS011;11950;51.230;4.012;2024-01-27T13:17:17;9.18;;;2.35;;
23543;SDS011;11950;51.230;4.012;2024-01-27T13:19:45;12.40;;;2.40;;
23543;SDS011;11950;51.230;4.012;2024-01-27T13:22:12;11.88;;;2.42;;
23543;SDS011;11950;51.230;4.012;2024-01-27T13:24:38;15.60;;;2.70;;
23543;SDS011;11950;51.230;4.012;2024-01-27T13:27:04;13.38;;;2.03;;
23543;SDS011;11950;51.230;4.012;2024-01-27T13:29:31;11.98;;;1.88;;
23543;SDS011;11950;51.230;4.012;2024-01-27T13:31:58;10.48;;;2.40;;
23543;SDS011;11950;51.230;4.012;2024-01-27T13:34:27;9.85;;;2.10;;
23543;SDS011;11950;51.230;4.012;2024-01-27T13:36:56;14.90;;;2.30;;
23543;SDS011;11950;51.230;4.012;2024-01-27T13:39:22;9.27;;;1.85;;
23543;SDS011;11950;51.230;4.012;2024-01-27T13:41:48;11.75;;;1.92;;
23543;SDS011;11950;51.230;4.012;2024-01-27T13:44:15;13.15;;;2.17;;
23543;SDS011;11950;51.230;4.012;2024-01-27T13:46:41;7.97;;;1.70;;
23543;SDS011;11950;51.230;4.012;2024-01-27T13:49:07;11.98;;;2.00;;
23543;SDS011;11950;51.230;4.012;2024-01-27T13:51:34;7.40;;;1.90;;
23543;SDS011;11950;51.230;4.012;2024-01-27T13:54:00;12.57;;;1.50;;
23543;SDS011;11950;51.230;4.012;2024-01-27T13:56:26;8.20;;;1.50;;
23543;SDS011;11950;51.230;4.012;2024-01-27T13:58:54;5.18;;;1.58;;
23543;SDS011;11950;51.230;4.012;2024-01-27T14:01:21;9.65;;;1.48;;
23543;SDS011;11950;51.230;4.012;2024-01-27T14:03:47;7.88;;;1.35;;
23543;SDS011;11950;51.230;4.012;2024-01-27T14:06:13;11.02;;;1.50;;
23543;SDS011;11950;51.230;4.012;2024-01-27T14:08:40;6.53;;;1.25;;
23543;SDS011;11950;51.230;4.012;2024-01-27T14:11:06;8.15;;;1.60;;
23543;SDS011;11950;51.230;4.012;2024-01-27T14:13:33;9.32;;;1.83;;
23543;SDS011;11950;51.230;4.012;2024-01-27T14:15:59;10.70;;;1.88;;
23543;SDS011;11950;51.230;4.012;2024-01-27T14:18:25;10.43;;;1.65;;
23543;SDS011;11950;51.230;4.012;2024-01-27T14:20:51;9.18;;;1.88;;
23543;SDS011;11950;51.230;4.012;2024-01-27T14:23:18;13.18;;;2.13;;
23543;SDS011;11950;51.230;4.012;2024-01-27T14:25:44;9.55;;;1.88;;
23543;SDS011;11950;51.230;4.012;2024-01-27T14:28:10;7.90;;;1.90;;
23543;SDS011;11950;51.230;4.012;2024-01-27T14:30:37;8.77;;;1.80;;
23543;SDS011;11950;51.230;4.012;2024-01-27T14:33:05;11.20;;;2.00;;